Time;durP1;ratioP1;P1;durP2;ratioP2;P2;SDS_P1;SDS_P2;PMS_P1;PMS_P2;Temp;Humidity;BMP_temperature;BMP_pressure;BME280_temperature;BME280_humidity;BME280_pressure;Samples;Min_cycle;Max_cycle;Signal;HPM_P1;HPM_P2
2022/05/10 00:02:21;;;;;;;;;;;;;;;;;;5106277;28;19923;-81
2022/05/10 00:04:47;;;;;;;;;;;;;;;;;;5108913;28;20006;-80
2022/05/10 00:07:13;;;;;;;;;;;;;;;;;;5104746;28;20358;-80
2022/05/10 00:09:39;;;;;;;;;;;;;;;;;;5092468;28;20351;-80
2022/05/10 00:12:05;;;;;;;;;;;;;;;;;;5103541;28;19928;-80
2022/05/10 00:14:31;;;;;;;;;;;;;;;;;;5099573;28;19916;-80
2022/05/10 00:16:57;;;;;;;;;;;;;;;;;;5088395;28;19920;-80
2022/05/10 00:19:27;;;;;;;;;;;;;;;;;;5083867;28;19969;-80
2022/05/10 00:21:53;;;;;;;;;;;;;;;;;;5101665;28;19916;-80
2022/05/10 00:24:19;;;;;;;;;;;;;;;;;;5103096;28;19927;-80
2022/05/10 00:26:45;;;;;;;;;;;;;;;;;;5099793;28;19927;-80
2022/05/10 00:29:11;;;;;;;;;;;;;;;;;;5089847;28;20014;-81
2022/05/10 00:31:37;;;;;;;;;;;;;;;;;;5092071;28;19923;-80
2022/05/10 00:34:03;;;;;;;;;;;;;;;;;;5101745;28;20640;-80
2022/05/10 00:36:28;;;;;;;;;;;;;;;;;;5108730;28;19922;-81
2022/05/10 00:38:55;;;;;;;;;;;;;;;;;;5106458;28;19981;-81
2022/05/10 00:41:21;;;;;;;;;;;;;;;;;;5101323;28;20341;-80
2022/05/10 00:43:46;;;;;;;;;;;;;;;;;;5098696;28;19959;-80
2022/05/10 00:46:12;;;;;;;;;;;;;;;;;;5091722;28;19926;-80
2022/05/10 00:48:38;;;;;;;;;;;;;;;;;;5107156;28;20346;-80
2022/05/10 00:51:04;;;;;;;;;;;;;;;;;;5104860;28;19920;-80
2022/05/10 00:53:30;;;;;;;;;;;;;;;;;;5109531;28;19915;-80
2022/05/10 00:55:57;;;;;;;;;;;;;;;;;;5099825;27;20313;-80
2022/05/10 00:58:23;;;;;;;;;;;;;;;;;;5090331;28;20010;-79
2022/05/10 01:00:49;;;;;;;;;;;;;;;;;;5098752;28;20374;-79
2022/05/10 01:03:14;;;;;;;;;;;;;;;;;;5107913;27;19934;-79
2022/05/10 01:05:40;;;;;;;;;;;;;;;;;;5105896;28;19980;-80
2022/05/10 01:08:06;;;;;;;;;;;;;;;;;;5108567;28;20010;-79
2022/05/10 01:10:32;;;;;;;;;;;;;;;;;;5110029;28;19976;-79
2022/05/10 01:12:58;;;;;;;;;;;;;;;;;;5107817;28;19941;-79
2022/05/10 01:15:24;;;;;;;;;;;;;;;;;;5107927;27;20002;-79
2022/05/10 01:17:50;;;;;;;;;;;;;;;;;;5107255;28;20015;-79
2022/05/10 01:20:16;;;;;;;;;;;;;;;;;;5104789;28;20572;-79
2022/05/10 01:22:42;;;;;;;;;;;;;;;;;;5110132;28;19916;-79
2022/05/10 01:25:08;;;;;;;;;;;;;;;;;;5107825;28;19925;-79
2022/05/10 01:27:34;;;;;;;;;;;;;;;;;;5105873;28;19916;-80
2022/05/10 01:30:00;;;;;;;;;;;;;;;;;;5106491;28;19915;-79
2022/05/10 01:35:11;;;;;;;;;;;;;;;;;;5102980;28;20359;-79
2022/05/10 01:37:37;;;;;;;;;;;;;;;;;;5100874;28;19919;-79
2022/05/10 01:40:03;;;;;;;;;;;;;;;;;;5105339;28;20004;-79
2022/05/10 01:42:28;;;;;;;;;;;;;;;;;;5107472;28;19916;-79
2022/05/10 01:44:54;;;;;;;;;;;;;;;;;;5108493;28;20374;-79
2022/05/10 01:47:20;;;;;;;;;;;;;;;;;;5104390;28;20378;-80
2022/05/10 01:49:46;;;;;;;;;;;;;;;;;;5100218;28;20355;-80
2022/05/10 01:52:12;;;;;;;;;;;;;;;;;;5105064;28;20266;-80
2022/05/10 01:54:38;;;;;;;;;;;;;;;;;;5108890;28;19937;-80
2022/05/10 01:57:04;;;;;;;;;;;;;;;;;;5103438;28;19926;-79
2022/05/10 01:59:30;;;;;;;;;;;;;;;;;;5099573;28;19955;-79
2022/05/10 02:01:56;;;;;;;;;;;;;;;;;;5109037;28;19916;-79
2022/05/10 02:04:22;;;;;;;;;;;;;;;;;;5103760;28;20355;-80
2022/05/10 02:06:48;;;;;;;;;;;;;;;;;;5106592;28;20427;-80
2022/05/10 02:09:14;;;;;;;;;;;;;;;;;;5097240;28;19975;-79
2022/05/10 02:11:40;;;;;;;;;;;;;;;;;;5074645;28;19920;-79
2022/05/10 02:14:06;;;;;;;;;;;;;;;;;;5092118;28;20015;-79
2022/05/10 02:16:32;;;;;;;;;;;;;;;;;;5082749;28;19923;-79
2022/05/10 02:18:58;;;;;;;;;;;;;;;;;;5109881;28;19930;-79
2022/05/10 02:21:23;;;;;;;;;;;;;;;;;;5104723;28;19926;-79
2022/05/10 02:23:49;;;;;;;;;;;;;;;;;;5111789;28;20388;-79
2022/05/10 02:26:15;;;;;;;;;;;;;;;;;;5093734;28;20473;-79
2022/05/10 02:28:41;;;;;;;;;;;;;;;;;;5109268;28;19916;-79
2022/05/10 02:31:07;;;;;;;;;;;;;;;;;;5105919;28;19958;-79
2022/05/10 02:33:33;;;;;;;;;;;;;;;;;;5111184;28;19919;-79
2022/05/10 02:35:59;;;;;;;;;;;;;;;;;;5110765;28;19920;-79
2022/05/10 02:38:25;;;;;;;;;;;;;;;;;;5086956;28;19984;-80
2022/05/10 02:40:52;;;;;;;;;;;;;;;;;;5104608;28;20350;-80
2022/05/10 02:43:18;;;;;;;;;;;;;;;;;;5122094;27;19920;-79
2022/05/10 02:45:44;;;;;;;;;;;;;;;;;;5106203;28;19927;-79
2022/05/10 02:48:10;;;;;;;;;;;;;;;;;;5110274;28;19919;-80
2022/05/10 02:50:36;;;;;;;;;;;;;;;;;;5103838;28;19915;-80
2022/05/10 02:53:02;;;;;;;;;;;;;;;;;;5107902;28;19922;-80
2022/05/10 02:55:27;;;;;;;;;;;;;;;;;;5103216;28;19916;-80
2022/05/10 02:57:53;;;;;;;;;;;;;;;;;;5099085;28;19919;-80
2022/05/10 03:00:19;;;;;;;;;;;;;;;;;;5109361;28;20307;-79
2022/05/10 03:02:45;;;;;;;;;;;;;;;;;;5083344;28;20022;-80
2022/05/10 03:05:11;;;;;;;;;;;;;;;;;;5118672;27;19916;-80
2022/05/10 03:07:38;;;;;;;;;;;;;;;;;;5107719;28;20252;-80
2022/05/10 03:10:04;;;;;;;;;;;;;;;;;;5112894;28;19969;-79
2022/05/10 03:12:30;;;;;;;;;;;;;;;;;;5111634;28;19920;-80
2022/05/10 03:14:56;;;;;;;;;;;;;;;;;;5084169;28;19919;-80
2022/05/10 03:17:22;;;;;;;;;;;;;;;;;;5078545;28;20002;-79
2022/05/10 03:19:48;;;;;;;;;;;;;;;;;;5107287;28;19927;-79
2022/05/10 03:22:14;;;;;;;;;;;;;;;;;;5080975;28;20358;-79
2022/05/10 03:24:40;;;;;;;;;;;;;;;;;;5110393;28;19919;-79
2022/05/10 03:27:06;;;;;;;;;;;;;;;;;;5112307;28;19915;-78
2022/05/10 03:29:31;;;;;;;;;;;;;;;;;;5106844;28;19923;-77
2022/05/10 03:31:57;;;;;;;;;;;;;;;;;;5106602;28;19962;-78
2022/05/10 03:37:08;;;;;;;;;;;;;;;;;;5092060;28;19919;-80
2022/05/10 03:39:34;;;;;;;;;;;;;;;;;;5087649;28;19926;-79
2022/05/10 03:42:00;;;;;;;;;;;;;;;;;;5108028;28;19916;-79
2022/05/10 03:44:26;;;;;;;;;;;;;;;;;;5109960;28;19915;-80
2022/05/10 03:46:52;;;;;;;;;;;;;;;;;;5098907;28;20002;-79
2022/05/10 03:49:19;;;;;;;;;;;;;;;;;;5092464;28;20370;-80
2022/05/10 03:51:44;;;;;;;;;;;;;;;;;;5096252;28;19923;-79
2022/05/10 03:54:10;;;;;;;;;;;;;;;;;;5079773;28;19916;-80
2022/05/10 03:56:36;;;;;;;;;;;;;;;;;;5102402;28;19916;-79
2022/05/10 03:59:02;;;;;;;;;;;;;;;;;;5109920;28;19960;-79
2022/05/10 04:01:28;;;;;;;;;;;;;;;;;;5104261;28;19920;-79
2022/05/10 04:03:54;;;;;;;;;;;;;;;;;;5105916;28;19926;-79
2022/05/10 04:06:20;;;;;;;;;;;;;;;;;;5100512;28;20331;-79
2022/05/10 04:08:46;;;;;;;;;;;;;;;;;;5104874;28;19939;-79
2022/05/10 04:11:12;;;;;;;;;;;;;;;;;;5084827;28;20003;-79
2022/05/10 04:13:38;;;;;;;;;;;;;;;;;;5104503;28;20469;-78
2022/05/10 04:16:04;;;;;;;;;;;;;;;;;;5087670;28;20301;-79
2022/05/10 04:18:30;;;;;;;;;;;;;;;;;;5106411;28;19920;-78
2022/05/10 04:20:56;;;;;;;;;;;;;;;;;;5103302;28;19915;-78
2022/05/10 04:23:22;;;;;;;;;;;;;;;;;;5105873;28;19916;-78
2022/05/10 04:25:48;;;;;;;;;;;;;;;;;;5108637;28;19998;-78
2022/05/10 04:28:14;;;;;;;;;;;;;;;;;;5089477;28;19919;-78
2022/05/10 04:30:40;;;;;;;;;;;;;;;;;;5084922;28;21096;-79
2022/05/10 04:33:06;;;;;;;;;;;;;;;;;;5104720;28;19916;-78
2022/05/10 04:35:32;;;;;;;;;;;;;;;;;;5092730;28;20350;-79
2022/05/10 04:37:57;;;;;;;;;;;;;;;;;;5106694;28;20275;-78
2022/05/10 04:43:08;;;;;;;;;;;;;;;;;;5103574;28;19957;-79
2022/05/10 04:45:34;;;;;;;;;;;;;;;;;;5111041;28;19966;-78
2022/05/10 04:48:00;;;;;;;;;;;;;;;;;;5086337;28;20335;-78
2022/05/10 04:50:26;;;;;;;;;;;;;;;;;;5083183;28;20402;-80
2022/05/10 04:52:52;;;;;;;;;;;;;;;;;;5088423;28;21630;-80
2022/05/10 04:55:20;;;;;;;;;;;;;;;;;;5089770;28;20316;-79
2022/05/10 04:57:47;;;;;;;;;;;;;;;;;;5104877;28;20308;-79
2022/05/10 05:00:13;;;;;;;;;;;;;;;;;;5103371;28;19938;-79
2022/05/10 05:02:39;;;;;;;;;;;;;;;;;;5110340;28;20350;-78
2022/05/10 05:05:05;;;;;;;;;;;;;;;;;;5090238;28;19927;-79
2022/05/10 05:07:31;;;;;;;;;;;;;;;;;;5087972;28;19955;-79
2022/05/10 05:09:57;;;;;;;;;;;;;;;;;;5104598;28;19962;-79
2022/05/10 05:12:23;;;;;;;;;;;;;;;;;;5109962;28;19968;-79
2022/05/10 05:14:49;;;;;;;;;;;;;;;;;;5080529;28;19916;-79
2022/05/10 05:17:15;;;;;;;;;;;;;;;;;;5108581;28;19991;-79
2022/05/10 05:19:40;;;;;;;;;;;;;;;;;;5084534;28;19920;-79
2022/05/10 05:22:06;;;;;;;;;;;;;;;;;;5099664;28;19964;-78
2022/05/10 05:24:32;;;;;;;;;;;;;;;;;;5102783;28;19998;-79
2022/05/10 05:26:58;;;;;;;;;;;;;;;;;;5087682;28;20011;-78
2022/05/10 05:29:24;;;;;;;;;;;;;;;;;;5102771;28;20302;-78
2022/05/10 05:31:50;;;;;;;;;;;;;;;;;;5098895;28;19942;-79
2022/05/10 05:34:16;;;;;;;;;;;;;;;;;;5080457;28;19920;-79
2022/05/10 05:36:43;;;;;;;;;;;;;;;;;;5084727;28;19938;-79
2022/05/10 05:39:08;;;;;;;;;;;;;;;;;;5097649;28;20002;-79
2022/05/10 05:41:34;;;;;;;;;;;;;;;;;;5107873;28;20629;-78
2022/05/10 05:44:00;;;;;;;;;;;;;;;;;;5090331;28;19916;-78
2022/05/10 05:46:26;;;;;;;;;;;;;;;;;;5106766;28;20026;-79
2022/05/10 05:48:52;;;;;;;;;;;;;;;;;;5107864;28;19915;-79
2022/05/10 05:51:18;;;;;;;;;;;;;;;;;;5086418;28;19923;-80
2022/05/10 05:53:44;;;;;;;;;;;;;;;;;;5091128;28;19919;-80
2022/05/10 05:56:11;;;;;;;;;;;;;;;;;;5088099;28;19921;-80
2022/05/10 05:58:37;;;;;;;;;;;;;;;;;;5110288;28;20373;-79
2022/05/10 06:01:03;;;;;;;;;;;;;;;;;;5112510;28;19994;-79
2022/05/10 06:03:29;;;;;;;;;;;;;;;;;;5106791;28;19924;-79
2022/05/10 06:05:55;;;;;;;;;;;;;;;;;;5090623;28;19935;-79
2022/05/10 06:08:21;;;;;;;;;;;;;;;;;;5106554;28;19915;-80
2022/05/10 06:10:50;;;;;;;;;;;;;;;;;;5108852;28;19916;-79
2022/05/10 06:13:18;;;;;;;;;;;;;;;;;;5090608;28;20723;-80
2022/05/10 06:15:44;;;;;;;;;;;;;;;;;;5090831;28;20012;-79
2022/05/10 06:18:10;;;;;;;;;;;;;;;;;;5095065;27;19969;-79
2022/05/10 06:20:36;;;;;;;;;;;;;;;;;;5111330;27;19930;-78
2022/05/10 06:23:03;;;;;;;;;;;;;;;;;;5103456;27;20022;-78
2022/05/10 06:25:29;;;;;;;;;;;;;;;;;;5114419;27;19923;-79
2022/05/10 06:27:55;;;;;;;;;;;;;;;;;;5094766;27;19915;-78
2022/05/10 06:30:21;;;;;;;;;;;;;;;;;;5087483;27;19957;-79
2022/05/10 06:32:47;;;;;;;;;;;;;;;;;;5112592;27;19963;-79
2022/05/10 06:35:14;;;;;;;;;;;;;;;;;;5113744;27;19919;-79
2022/05/10 06:40:24;;;;;;;;;;;;;;;;;;5103654;27;20067;-80
2022/05/10 06:42:50;;;;;;;;;;;;;;;;;;5107000;27;20006;-79
2022/05/10 06:45:16;;;;;;;;;;;;;;;;;;5115296;27;19915;-79
2022/05/10 06:47:42;;;;;;;;;;;;;;;;;;5095775;27;19922;-81
2022/05/10 06:50:08;;;;;;;;;;;;;;;;;;5094315;27;19915;-79
2022/05/10 06:52:34;;;;;;;;;;;;;;;;;;5109210;27;19926;-81
2022/05/10 06:55:00;;;;;;;;;;;;;;;;;;5107540;27;19916;-79
2022/05/10 06:57:26;;;;;;;;;;;;;;;;;;5104303;27;20002;-80
2022/05/10 06:59:52;;;;;;;;;;;;;;;;;;5112144;27;20266;-79
2022/05/10 07:02:18;;;;;;;;;;;;;;;;;;5113391;27;19915;-80
2022/05/10 07:04:44;;;;;;;;;;;;;;;;;;5095372;27;19926;-81
2022/05/10 07:07:10;;;;;;;;;;;;;;;;;;5095583;27;19970;-80
2022/05/10 07:09:36;;;;;;;;;;;;;;;;;;5090971;27;20051;-79
2022/05/10 07:12:02;;;;;;;;;;;;;;;;;;5083034;28;19942;-79
2022/05/10 07:14:28;;;;;;;;;;;;;;;;;;5087933;27;19915;-80
2022/05/10 07:16:54;;;;;;;;;;;;;;;;;;5086146;28;19959;-80
2022/05/10 07:19:20;;;;;;;;;;;;;;;;;;5092605;27;19915;-80
2022/05/10 07:21:48;;;;;;;;;;;;;;;;;;5112368;27;19964;-80
2022/05/10 07:24:16;;;;;;;;;;;;;;;;;;5110170;28;19941;-80
2022/05/10 07:26:45;;;;;;;;;;;;;;;;;;5110252;27;19920;-79
2022/05/10 07:29:11;;;;;;;;;;;;;;;;;;5112637;27;20385;-79
2022/05/10 07:31:37;;;;;;;;;;;;;;;;;;5083550;27;19916;-79
2022/05/10 07:34:02;;;;;;;;;;;;;;;;;;5111717;27;20626;-79
2022/05/10 07:36:33;;;;;;;;;;;;;;;;;;5107651;27;20257;-80
2022/05/10 07:38:59;;;;;;;;;;;;;;;;;;5114930;27;19919;-79
2022/05/10 07:41:25;;;;;;;;;;;;;;;;;;5093843;27;19915;-81
2022/05/10 07:43:51;;;;;;;;;;;;;;;;;;5088831;27;19915;-80
2022/05/10 07:46:17;;;;;;;;;;;;;;;;;;5093409;27;20355;-80
2022/05/10 07:48:43;;;;;;;;;;;;;;;;;;5084196;27;20405;-79
2022/05/10 07:51:09;;;;;;;;;;;;;;;;;;5107276;28;20389;-80
2022/05/10 07:53:35;;;;;;;;;;;;;;;;;;5114808;27;19938;-80
2022/05/10 07:56:01;;;;;;;;;;;;;;;;;;5111061;27;19924;-80
2022/05/10 07:58:27;;;;;;;;;;;;;;;;;;5107411;27;20346;-80
2022/05/10 08:00:53;;;;;;;;;;;;;;;;;;5108928;27;20298;-80
2022/05/10 08:03:19;;;;;;;;;;;;;;;;;;5112246;27;20308;-81
2022/05/10 08:05:45;;;;;;;;;;;;;;;;;;5088882;27;20002;-81
2022/05/10 08:08:17;;;;;;;;;;;;;;;;;;5088663;27;20041;-80
2022/05/10 08:10:43;;;;;;;;;;;;;;;;;;5088345;27;19923;-80
2022/05/10 08:13:09;;;;;;;;;;;;;;;;;;5107166;27;20293;-80
2022/05/10 08:15:35;;;;;;;;;;;;;;;;;;5093330;27;19928;-80
2022/05/10 08:18:01;;;;;;;;;;;;;;;;;;5112696;27;19964;-80
2022/05/10 08:20:28;;;;;;;;;;;;;;;;;;5080444;27;19927;-82
2022/05/10 08:22:54;;;;;;;;;;;;;;;;;;5084246;27;19919;-81
2022/05/10 08:25:20;;;;;;;;;;;;;;;;;;5105656;27;20312;-79
2022/05/10 08:27:46;;;;;;;;;;;;;;;;;;5097964;28;19951;-79
2022/05/10 08:30:12;;;;;;;;;;;;;;;;;;5093213;27;19919;-80
2022/05/10 08:32:39;;;;;;;;;;;;;;;;;;5104699;27;19929;-79
2022/05/10 08:35:05;;;;;;;;;;;;;;;;;;5111171;27;20303;-80
2022/05/10 08:37:31;;;;;;;;;;;;;;;;;;5105323;27;19915;-80
2022/05/10 08:39:58;;;;;;;;;;;;;;;;;;5105641;27;20378;-80
2022/05/10 08:42:24;;;;;;;;;;;;;;;;;;5080834;28;20387;-81
2022/05/10 08:44:50;;;;;;;;;;;;;;;;;;5103648;27;19981;-82
2022/05/10 08:47:16;;;;;;;;;;;;;;;;;;5086490;27;20338;-80
2022/05/10 08:49:42;;;;;;;;;;;;;;;;;;5100943;27;19928;-81
2022/05/10 08:52:08;;;;;;;;;;;;;;;;;;5100467;27;19927;-80
2022/05/10 08:54:34;;;;;;;;;;;;;;;;;;5102376;27;20005;-80
2022/05/10 08:57:00;;;;;;;;;;;;;;;;;;5081527;28;19915;-78
2022/05/10 08:59:26;;;;;;;;;;;;;;;;;;5084146;27;19964;-79
2022/05/10 09:01:52;;;;;;;;;;;;;;;;;;5090252;28;19930;-80
2022/05/10 09:04:18;;;;;;;;;;;;;;;;;;5084274;27;19915;-80
2022/05/10 09:06:44;;;;;;;;;;;;;;;;;;5099300;27;19926;-80
2022/05/10 09:09:10;;;;;;;;;;;;;;;;;;5109642;27;20409;-78
2022/05/10 09:11:36;;;;;;;;;;;;;;;;;;5099119;27;20529;-78
2022/05/10 09:14:01;;;;;;;;;;;;;;;;;;5107476;27;20328;-79
2022/05/10 09:16:27;;;;;;;;;;;;;;;;;;5104327;27;19922;-79
2022/05/10 09:18:53;;;;;;;;;;;;;;;;;;5102332;28;21174;-79
2022/05/10 09:21:19;;;;;;;;;;;;;;;;;;5097711;28;19923;-80
2022/05/10 09:23:46;;;;;;;;;;;;;;;;;;5083163;28;20350;-81
2022/05/10 09:26:11;;;;;;;;;;;;;;;;;;5105258;28;19915;-82
2022/05/10 09:28:37;;;;;;;;;;;;;;;;;;5099898;28;19927;-82
2022/05/10 09:36:34;;;;;;;;;;;;;;;;;;5114447;28;20385;-82
2022/05/10 09:39:00;;;;;;;;;;;;;;;;;;5097467;28;21466;-80
2022/05/10 09:41:26;;;;;;;;;;;;;;;;;;5090501;28;20351;-82
2022/05/10 09:43:52;;;;;;;;;;;;;;;;;;5100384;28;19915;-80
2022/05/10 09:46:18;;;;;;;;;;;;;;;;;;5105816;28;19922;-79
2022/05/10 09:48:44;;;;;;;;;;;;;;;;;;5091274;28;19919;-79
2022/05/10 09:51:09;;;;;;;;;;;;;;;;;;5090082;28;19920;-79
2022/05/10 09:53:35;;;;;;;;;;;;;;;;;;5107587;28;19915;-85
2022/05/10 09:56:03;;;;;;;;;;;;;;;;;;5103278;28;19920;-83
2022/05/10 09:58:29;;;;;;;;;;;;;;;;;;5101358;28;19915;-80
2022/05/10 10:00:56;;;;;;;;;;;;;;;;;;5089902;28;20381;-79
2022/05/10 10:03:22;;;;;;;;;;;;;;;;;;5103493;28;19916;-80
2022/05/10 10:05:48;;;;;;;;;;;;;;;;;;5082834;28;19916;-79
2022/05/10 10:08:13;;;;;;;;;;;;;;;;;;5105104;28;20348;-80
2022/05/10 10:10:39;;;;;;;;;;;;;;;;;;5108471;28;19919;-79
2022/05/10 10:13:05;;;;;;;;;;;;;;;;;;5106405;28;19984;-79
2022/05/10 10:15:31;;;;;;;;;;;;;;;;;;5104090;28;19963;-79
2022/05/10 10:17:58;;;;;;;;;;;;;;;;;;5103302;28;19927;-81
2022/05/10 10:20:24;;;;;;;;;;;;;;;;;;5072568;28;20027;-79
2022/05/10 10:22:51;;;;;;;;;;;;;;;;;;5070383;28;20007;-79
2022/05/10 10:25:17;;;;;;;;;;;;;;;;;;5086995;28;19978;-80
2022/05/10 10:27:43;;;;;;;;;;;;;;;;;;5069951;28;20355;-80
2022/05/10 10:30:09;;;;;;;;;;;;;;;;;;5085280;28;20344;-82
2022/05/10 10:32:35;;;;;;;;;;;;;;;;;;5069383;28;20374;-80
2022/05/10 10:35:02;;;;;;;;;;;;;;;;;;5085770;28;19923;-81
2022/05/10 10:37:28;;;;;;;;;;;;;;;;;;5067730;28;19920;-84
2022/05/10 10:39:54;;;;;;;;;;;;;;;;;;5066915;28;20430;-84
2022/05/10 10:42:20;;;;;;;;;;;;;;;;;;5080688;28;20400;-83
2022/05/10 10:44:46;;;;;;;;;;;;;;;;;;5071849;28;19929;-82
2022/05/10 10:47:12;;;;;;;;;;;;;;;;;;5066567;28;19926;-83
2022/05/10 10:49:38;;;;;;;;;;;;;;;;;;5056293;28;19928;-83
2022/05/10 10:52:04;;;;;;;;;;;;;;;;;;5061815;28;19937;-82
2022/05/10 10:54:30;;;;;;;;;;;;;;;;;;5056586;28;19928;-83
2022/05/10 10:56:56;;;;;;;;;;;;;;;;;;5053742;28;20406;-85
2022/05/10 10:59:21;;;;;;;;;;;;;;;;;;5074540;28;19915;-74
2022/05/10 11:01:47;;;;;;;;;;;;;;;;;;5078525;28;20358;-75
2022/05/10 11:04:13;;;;;;;;;;;;;;;;;;5081337;28;20400;-76
2022/05/10 11:06:39;;;;;;;;;;;;;;;;;;5085326;28;20368;-76
2022/05/10 11:09:05;;;;;;;;;;;;;;;;;;5078354;28;19940;-82
2022/05/10 11:11:31;;;;;;;;;;;;;;;;;;5087947;28;19923;-76
2022/05/10 11:13:58;;;;;;;;;;;;;;;;;;5072990;28;20365;-78
2022/05/10 11:16:24;;;;;;;;;;;;;;;;;;5086370;28;19920;-81
2022/05/10 11:18:50;;;;;;;;;;;;;;;;;;5077272;27;19915;-84
2022/05/10 11:21:16;;;;;;;;;;;;;;;;;;5092514;27;20243;-76
2022/05/10 11:23:42;;;;;;;;;;;;;;;;;;5113240;27;19922;-78
2022/05/10 11:26:08;;;;;;;;;;;;;;;;;;5112558;27;19998;-80
2022/05/10 11:28:34;;;;;;;;;;;;;;;;;;5108381;27;19919;-83
2022/05/10 11:30:59;;;;;;;;;;;;;;;;;;5091599;27;19922;-82
2022/05/10 11:33:25;;;;;;;;;;;;;;;;;;5096512;27;19960;-79
2022/05/10 11:35:51;;;;;;;;;;;;;;;;;;5109400;27;19951;-79
2022/05/10 11:38:17;;;;;;;;;;;;;;;;;;5086018;28;20423;-79
2022/05/10 11:40:45;;;;;;;;;;;;;;;;;;5101838;27;19919;-82
2022/05/10 11:43:12;;;;;;;;;;;;;;;;;;5113077;27;20580;-77
2022/05/10 11:45:38;;;;;;;;;;;;;;;;;;5113349;27;19922;-77
2022/05/10 11:48:04;;;;;;;;;;;;;;;;;;5113545;27;19923;-77
2022/05/10 11:50:30;;;;;;;;;;;;;;;;;;5132346;27;20315;-79
2022/05/10 11:52:56;;;;;;;;;;;;;;;;;;5109719;27;19959;-78
2022/05/10 11:55:22;;;;;;;;;;;;;;;;;;5105422;28;20032;-77
2022/05/10 11:57:48;;;;;;;;;;;;;;;;;;5104575;27;19915;-76
2022/05/10 12:00:14;;;;;;;;;;;;;;;;;;5081325;27;19919;-78
2022/05/10 12:02:40;;;;;;;;;;;;;;;;;;5084180;28;19919;-78
2022/05/10 12:05:06;;;;;;;;;;;;;;;;;;5108422;27;20047;-77
2022/05/10 12:07:32;;;;;;;;;;;;;;;;;;5115428;27;19981;-77
2022/05/10 12:09:58;;;;;;;;;;;;;;;;;;5113775;27;19916;-77
2022/05/10 12:12:24;;;;;;;;;;;;;;;;;;5095147;27;19927;-77
2022/05/10 12:23:04;;;;;;;;;;;;;;;;;;5112894;27;19975;-77
2022/05/10 12:25:30;;;;;;;;;;;;;;;;;;5112941;27;19954;-78
2022/05/10 12:27:56;;;;;;;;;;;;;;;;;;5096668;28;19969;-77
2022/05/10 12:30:22;;;;;;;;;;;;;;;;;;5111674;27;20353;-77
2022/05/10 12:32:49;;;;;;;;;;;;;;;;;;5113348;27;19919;-78
2022/05/10 12:35:16;;;;;;;;;;;;;;;;;;5096463;27;19926;-76
2022/05/10 12:37:42;;;;;;;;;;;;;;;;;;5097829;27;20261;-77
2022/05/10 12:40:08;;;;;;;;;;;;;;;;;;5105559;27;19923;-77
2022/05/10 12:42:34;;;;;;;;;;;;;;;;;;5107477;27;19919;-77
2022/05/10 12:45:00;;;;;;;;;;;;;;;;;;5088912;28;19916;-76
2022/05/10 12:47:26;;;;;;;;;;;;;;;;;;5107309;27;19915;-77
2022/05/10 12:49:51;;;;;;;;;;;;;;;;;;5108251;27;19922;-78
2022/05/10 12:52:20;;;;;;;;;;;;;;;;;;5105508;28;19942;-77
2022/05/10 12:54:47;;;;;;;;;;;;;;;;;;5099072;28;19922;-76
2022/05/10 12:57:13;;;;;;;;;;;;;;;;;;5091425;27;19916;-76
2022/05/10 12:59:39;;;;;;;;;;;;;;;;;;5119865;27;19960;-76
2022/05/10 13:02:05;;;;;;;;;;;;;;;;;;5093012;27;20416;-77
2022/05/10 13:04:31;;;;;;;;;;;;;;;;;;5104466;28;19998;-77
2022/05/10 13:06:57;;;;;;;;;;;;;;;;;;5112376;27;19926;-77
2022/05/10 13:09:23;;;;;;;;;;;;;;;;;;5113193;27;19964;-76
2022/05/10 13:11:49;;;;;;;;;;;;;;;;;;5114357;27;19915;-77
2022/05/10 13:14:15;;;;;;;;;;;;;;;;;;5120870;27;20003;-78
2022/05/10 13:16:40;;;;;;;;;;;;;;;;;;5107913;27;19915;-76
2022/05/10 13:19:06;;;;;;;;;;;;;;;;;;5113226;27;19968;-76
2022/05/10 13:21:34;;;;;;;;;;;;;;;;;;5132277;27;19927;-76
2022/05/10 13:24:00;;;;;;;;;;;;;;;;;;5108386;28;20479;-76
2022/05/10 13:26:26;;;;;;;;;;;;;;;;;;5086538;27;19928;-80
2022/05/10 13:28:52;;;;;;;;;;;;;;;;;;5110500;28;19915;-81
2022/05/10 13:31:18;;;;;;;;;;;;;;;;;;5087387;28;20031;-74
2022/05/10 13:33:44;;;;;;;;;;;;;;;;;;5089029;28;19920;-74
2022/05/10 13:36:10;;;;;;;;;;;;;;;;;;5114044;28;19938;-76
2022/05/10 13:38:36;;;;;;;;;;;;;;;;;;5109936;28;19915;-74
2022/05/10 13:41:03;;;;;;;;;;;;;;;;;;5114223;28;19923;-74
2022/05/10 13:43:29;;;;;;;;;;;;;;;;;;5114898;28;19915;-74
2022/05/10 13:45:55;;;;;;;;;;;;;;;;;;5091947;28;19919;-77
2022/05/10 13:48:21;;;;;;;;;;;;;;;;;;5114193;28;20268;-74
2022/05/10 13:50:51;;;;;;;;;;;;;;;;;;5093423;28;20002;-74
2022/05/10 13:53:18;;;;;;;;;;;;;;;;;;5095918;28;19962;-75
2022/05/10 13:55:44;;;;;;;;;;;;;;;;;;5114192;28;19915;-74
2022/05/10 13:58:13;;;;;;;;;;;;;;;;;;5113515;28;19965;-74
2022/05/10 14:00:39;;;;;;;;;;;;;;;;;;5131131;28;19915;-74
2022/05/10 14:03:06;;;;;;;;;;;;;;;;;;5118321;28;19919;-77
2022/05/10 14:05:33;;;;;;;;;;;;;;;;;;5112752;28;19915;-75
2022/05/10 14:07:59;;;;;;;;;;;;;;;;;;5091329;28;19950;-74
2022/05/10 14:10:25;;;;;;;;;;;;;;;;;;5096570;28;19955;-74
2022/05/10 14:12:51;;;;;;;;;;;;;;;;;;5128362;27;19915;-75
2022/05/10 14:15:17;;;;;;;;;;;;;;;;;;5099429;27;19919;-74
2022/05/10 14:17:43;;;;;;;;;;;;;;;;;;5095476;27;19976;-73
2022/05/10 14:20:20;;;;;;;;;;;;;;;;;;5124460;27;19998;-73
2022/05/10 14:22:46;;;;;;;;;;;;;;;;;;5132376;27;20010;-75
2022/05/10 14:25:14;;;;;;;;;;;;;;;;;;5113888;27;20033;-78
2022/05/10 14:27:41;;;;;;;;;;;;;;;;;;5105585;27;20365;-75
2022/05/10 14:30:08;;;;;;;;;;;;;;;;;;5103780;27;20269;-75
2022/05/10 14:32:34;;;;;;;;;;;;;;;;;;5118907;27;20265;-76
2022/05/10 14:35:00;;;;;;;;;;;;;;;;;;5133107;27;19916;-76
2022/05/10 14:37:28;;;;;;;;;;;;;;;;;;5132008;27;19951;-74
2022/05/10 14:39:54;;;;;;;;;;;;;;;;;;5134739;27;19915;-75
2022/05/10 14:42:20;;;;;;;;;;;;;;;;;;5134588;27;19922;-74
2022/05/10 14:44:46;;;;;;;;;;;;;;;;;;5106839;28;19923;-74
2022/05/10 14:47:12;;;;;;;;;;;;;;;;;;5128932;27;19915;-75
2022/05/10 14:49:39;;;;;;;;;;;;;;;;;;5128434;27;20381;-74
2022/05/10 14:52:05;;;;;;;;;;;;;;;;;;5123148;27;19940;-75
2022/05/10 14:54:31;;;;;;;;;;;;;;;;;;5129709;27;19920;-76
2022/05/10 14:56:58;;;;;;;;;;;;;;;;;;5128163;27;21494;-77
2022/05/10 14:59:48;;;;;;;;;;;;;;;;;;5112998;27;20299;-81
2022/05/10 15:02:10;;;;;;;;;;;;;;;;;;5107648;27;20303;-78
2022/05/10 15:04:36;;;;;;;;;;;;;;;;;;5111789;27;19998;-79
2022/05/10 15:07:01;;;;;;;;;;;;;;;;;;5110353;27;19915;-81
2022/05/10 15:09:30;;;;;;;;;;;;;;;;;;5112044;27;19927;-79
2022/05/10 15:14:41;;;;;;;;;;;;;;;;;;5110838;27;20351;-78
2022/05/10 15:17:07;;;;;;;;;;;;;;;;;;5112008;27;19916;-79
2022/05/10 15:19:33;;;;;;;;;;;;;;;;;;5089285;27;19919;-79
2022/05/10 15:21:59;;;;;;;;;;;;;;;;;;5091523;27;19920;-79
2022/05/10 15:24:25;;;;;;;;;;;;;;;;;;5087865;27;19928;-79
2022/05/10 15:26:51;;;;;;;;;;;;;;;;;;5097675;27;19927;-77
2022/05/10 15:29:27;;;;;;;;;;;;;;;;;;5113432;27;19968;-77
2022/05/10 15:32:06;;;;;;;;;;;;;;;;;;5094883;27;19919;-78
2022/05/10 15:34:52;;;;;;;;;;;;;;;;;;5096867;27;19928;-78
2022/05/10 15:37:37;;;;;;;;;;;;;;;;;;;;;
2022/05/10 15:40:13;;;;;;;;;;;;;;;;;;5055216;28;19917;-78
2022/05/10 15:42:42;;;;;;;;;;;;;;;;;;5060570;28;19923;-75
2022/05/10 15:45:33;;;;;;;;;;;;;;;;;;5063909;28;20371;-75
2022/05/10 15:48:25;;;;;;;;;;;;;;;;;;5064386;28;19916;-75
2022/05/10 15:50:52;;;;;;;;;;;;;;;;;;5055157;28;19984;-75
2022/05/10 15:53:19;;;;;;;;;;;;;;;;;;5071047;28;20363;-76
2022/05/10 15:55:45;;;;;;;;;;;;;;;;;;5088555;28;19939;-76
2022/05/10 15:58:11;;;;;;;;;;;;;;;;;;5085642;28;20347;-75
2022/05/10 16:00:40;;;;;;;;;;;;;;;;;;5088575;28;20431;-76
2022/05/10 16:03:06;;;;;;;;;;;;;;;;;;5130019;27;19915;-78
2022/05/10 16:05:39;;;;;;;;;;;;;;;;;;5132288;27;19916;-75
2022/05/10 16:08:05;;;;;;;;;;;;;;;;;;5111902;27;19919;-77
2022/05/10 16:10:31;;;;;;;;;;;;;;;;;;5131079;27;19934;-76
2022/05/10 16:12:57;;;;;;;;;;;;;;;;;;5113721;27;19923;-76
2022/05/10 16:15:24;;;;;;;;;;;;;;;;;;5111125;27;19915;-76
2022/05/10 16:17:50;;;;;;;;;;;;;;;;;;5108070;27;19915;-75
2022/05/10 16:20:16;;;;;;;;;;;;;;;;;;5108688;28;19916;-75
2022/05/10 16:22:42;;;;;;;;;;;;;;;;;;5091202;28;19927;-75
2022/05/10 16:25:07;;;;;;;;;;;;;;;;;;5107342;28;19916;-75
2022/05/10 16:30:18;;;;;;;;;;;;;;;;;;5106838;28;19930;-76
2022/05/10 16:32:44;;;;;;;;;;;;;;;;;;5106172;28;19919;-76
2022/05/10 16:35:12;;;;;;;;;;;;;;;;;;5105174;28;19922;-76
2022/05/10 16:37:37;;;;;;;;;;;;;;;;;;5106594;28;19920;-74
2022/05/10 16:40:03;;;;;;;;;;;;;;;;;;5110351;28;20056;-74
2022/05/10 16:42:29;;;;;;;;;;;;;;;;;;5108346;28;19920;-75
2022/05/10 16:44:55;;;;;;;;;;;;;;;;;;5107817;28;20006;-74
2022/05/10 16:47:21;;;;;;;;;;;;;;;;;;5107739;28;19976;-75
2022/05/10 16:49:47;;;;;;;;;;;;;;;;;;5105135;28;19931;-74
2022/05/10 16:52:13;;;;;;;;;;;;;;;;;;5106824;28;19916;-74
2022/05/10 16:54:39;;;;;;;;;;;;;;;;;;5106536;28;19973;-80
2022/05/10 16:57:05;;;;;;;;;;;;;;;;;;5089151;28;19951;-77
2022/05/10 16:59:31;;;;;;;;;;;;;;;;;;5105977;28;19920;-76
2022/05/10 17:01:57;;;;;;;;;;;;;;;;;;5109271;28;19958;-75
2022/05/10 17:04:23;;;;;;;;;;;;;;;;;;5108829;28;19971;-75
2022/05/10 17:06:50;;;;;;;;;;;;;;;;;;5108529;28;19915;-76
2022/05/10 17:09:16;;;;;;;;;;;;;;;;;;5102348;28;19915;-76
2022/05/10 17:11:42;;;;;;;;;;;;;;;;;;5108674;28;20408;-79